sensor_id;sensor_type;location;lat;lon;timestamp;pressure;altitude;pressure_sealevel;temperature;humidity
6224;BME280;3145;42.726;23.342;2023-05-22T00:00:37;71996.88;;;-142.70;72.84
6224;BME280;3145;42.726;23.342;2023-05-22T00:03:05;71982.78;;;-142.70;72.24
6224;BME280;3145;42.726;23.342;2023-05-22T00:05:32;71976.75;;;-142.70;72.07
6224;BME280;3145;42.726;23.342;2023-05-22T00:08:03;71972.72;;;-142.70;71.56
6224;BME280;3145;42.726;23.342;2023-05-22T00:10:30;71972.72;;;-142.70;71.58
6224;BME280;3145;42.726;23.342;2023-05-22T00:12:56;71968.69;;;-142.70;71.43
6224;BME280;3145;42.726;23.342;2023-05-22T00:15:23;71972.72;;;-142.70;71.38
6224;BME280;3145;42.726;23.342;2023-05-22T00:17:50;71976.75;;;-142.70;71.47
6224;BME280;3145;42.726;23.342;2023-05-22T00:20:19;71974.72;;;-142.70;71.74
6224;BME280;3145;42.726;23.342;2023-05-22T00:22:46;71966.66;;;-142.70;71.47
6224;BME280;3145;42.726;23.342;2023-05-22T00:25:14;71980.75;;;-142.70;71.79
6224;BME280;3145;42.726;23.342;2023-05-22T00:27:43;71974.72;;;-142.70;71.64
6224;BME280;3145;42.726;23.342;2023-05-22T00:30:11;71976.75;;;-142.70;71.65
6224;BME280;3145;42.726;23.342;2023-05-22T00:32:38;71972.72;;;-142.70;71.38
6224;BME280;3145;42.726;23.342;2023-05-22T00:35:06;71976.75;;;-142.70;71.71
6224;BME280;3145;42.726;23.342;2023-05-22T00:37:34;71982.78;;;-142.70;71.88
6224;BME280;3145;42.726;23.342;2023-05-22T00:40:01;71988.81;;;-142.70;72.11
6224;BME280;3145;42.726;23.342;2023-05-22T00:42:29;71992.84;;;-142.70;72.27
6224;BME280;3145;42.726;23.342;2023-05-22T00:44:56;72004.94;;;-142.70;72.21
6224;BME280;3145;42.726;23.342;2023-05-22T00:47:23;71996.88;;;-142.70;71.79
6224;BME280;3145;42.726;23.342;2023-05-22T00:49:51;71992.84;;;-142.70;72.09
6224;BME280;3145;42.726;23.342;2023-05-22T00:52:18;72004.94;;;-142.70;72.37
6224;BME280;3145;42.726;23.342;2023-05-22T00:54:47;71996.88;;;-142.70;72.24
6224;BME280;3145;42.726;23.342;2023-05-22T00:57:16;71990.84;;;-142.70;71.94
6224;BME280;3145;42.726;23.342;2023-05-22T00:59:43;71992.84;;;-142.70;71.83
6224;BME280;3145;42.726;23.342;2023-05-22T01:02:09;71988.81;;;-142.70;71.96
6224;BME280;3145;42.726;23.342;2023-05-22T01:04:37;71976.75;;;-142.70;72.10
6224;BME280;3145;42.726;23.342;2023-05-22T01:07:05;71988.81;;;-142.70;71.90
6224;BME280;3145;42.726;23.342;2023-05-22T01:09:31;71988.81;;;-142.70;72.11
6224;BME280;3145;42.726;23.342;2023-05-22T01:12:08;71996.88;;;-142.70;72.21
6224;BME280;3145;42.726;23.342;2023-05-22T01:14:46;71996.88;;;-142.70;72.58
6224;BME280;3145;42.726;23.342;2023-05-22T01:17:23;71998.88;;;-142.70;72.51
6224;BME280;3145;42.726;23.342;2023-05-22T01:19:58;72000.91;;;-142.70;72.49
6224;BME280;3145;42.726;23.342;2023-05-22T01:22:43;72017.03;;;-142.70;72.87
6224;BME280;3145;42.726;23.342;2023-05-22T01:28:33;72019.03;;;-142.70;73.04
6224;BME280;3145;42.726;23.342;2023-05-22T01:31:04;72025.06;;;-142.70;73.35
6224;BME280;3145;42.726;23.342;2023-05-22T01:33:42;72017.03;;;-142.70;73.80
6224;BME280;3145;42.726;23.342;2023-05-22T01:36:11;72021.06;;;-142.70;73.75
6224;BME280;3145;42.726;23.342;2023-05-22T01:38:40;72015.00;;;-142.70;73.48
6224;BME280;3145;42.726;23.342;2023-05-22T01:41:08;72023.06;;;-142.70;73.51
6224;BME280;3145;42.726;23.342;2023-05-22T01:43:35;72025.06;;;-142.70;73.82
6224;BME280;3145;42.726;23.342;2023-05-22T01:46:03;72029.09;;;-142.70;73.60
6224;BME280;3145;42.726;23.342;2023-05-22T01:48:30;72025.06;;;-142.70;74.22
6224;BME280;3145;42.726;23.342;2023-05-22T01:51:02;72023.06;;;-142.70;74.36
6224;BME280;3145;42.726;23.342;2023-05-22T01:53:33;72029.09;;;-142.70;73.70
6224;BME280;3145;42.726;23.342;2023-05-22T01:56:05;72033.13;;;-142.70;73.92
6224;BME280;3145;42.726;23.342;2023-05-22T01:58:38;72031.13;;;-142.70;73.98
6224;BME280;3145;42.726;23.342;2023-05-22T02:01:09;72033.13;;;-142.70;74.28
6224;BME280;3145;42.726;23.342;2023-05-22T02:03:38;72037.16;;;-142.70;74.43
6224;BME280;3145;42.726;23.342;2023-05-22T02:06:08;72029.09;;;-142.70;74.16
6224;BME280;3145;42.726;23.342;2023-05-22T02:08:37;72029.09;;;-142.70;73.70
6224;BME280;3145;42.726;23.342;2023-05-22T02:11:05;72031.13;;;-142.70;73.96
6224;BME280;3145;42.726;23.342;2023-05-22T02:13:33;72029.09;;;-142.70;74.01
6224;BME280;3145;42.726;23.342;2023-05-22T02:16:01;72037.16;;;-142.70;74.20
6224;BME280;3145;42.726;23.342;2023-05-22T02:18:30;72037.16;;;-142.70;73.94
6224;BME280;3145;42.726;23.342;2023-05-22T02:20:57;72045.22;;;-142.70;74.13
6224;BME280;3145;42.726;23.342;2023-05-22T02:23:24;72045.22;;;-142.70;74.02
6224;BME280;3145;42.726;23.342;2023-05-22T02:25:51;72041.19;;;-142.70;73.87
6224;BME280;3145;42.726;23.342;2023-05-22T02:28:19;72053.28;;;-142.70;73.83
6224;BME280;3145;42.726;23.342;2023-05-22T02:30:46;72053.28;;;-142.70;73.92
6224;BME280;3145;42.726;23.342;2023-05-22T02:33:13;72059.31;;;-142.70;73.72
6224;BME280;3145;42.726;23.342;2023-05-22T02:35:43;72057.31;;;-142.70;74.02
6224;BME280;3145;42.726;23.342;2023-05-22T02:38:10;72057.31;;;-142.70;73.93
6224;BME280;3145;42.726;23.342;2023-05-22T02:40:37;72061.34;;;-142.70;74.04
6224;BME280;3145;42.726;23.342;2023-05-22T02:43:04;72067.38;;;-142.70;74.53
6224;BME280;3145;42.726;23.342;2023-05-22T02:45:31;72073.41;;;-142.70;74.66
6224;BME280;3145;42.726;23.342;2023-05-22T02:47:58;72081.47;;;-142.70;74.53
6224;BME280;3145;42.726;23.342;2023-05-22T02:50:27;72081.47;;;-142.70;74.91
6224;BME280;3145;42.726;23.342;2023-05-22T02:52:57;72077.44;;;-142.70;74.76
6224;BME280;3145;42.726;23.342;2023-05-22T02:55:24;72085.50;;;-142.70;74.75
6224;BME280;3145;42.726;23.342;2023-05-22T02:57:50;72085.50;;;-142.70;75.12
6224;BME280;3145;42.726;23.342;2023-05-22T03:00:18;72091.53;;;-142.70;75.11
6224;BME280;3145;42.726;23.342;2023-05-22T03:02:46;72093.56;;;-142.70;75.34
6224;BME280;3145;42.726;23.342;2023-05-22T03:05:13;72095.56;;;-142.70;75.33
6224;BME280;3145;42.726;23.342;2023-05-22T03:07:42;72089.53;;;-142.70;75.69
6224;BME280;3145;42.726;23.342;2023-05-22T03:10:10;72089.53;;;-142.70;75.71
6224;BME280;3145;42.726;23.342;2023-05-22T03:12:37;72095.56;;;-142.70;75.87
6224;BME280;3145;42.726;23.342;2023-05-22T03:15:04;72103.63;;;-142.70;75.84
6224;BME280;3145;42.726;23.342;2023-05-22T03:17:31;72097.59;;;-142.70;76.16
6224;BME280;3145;42.726;23.342;2023-05-22T03:19:57;72099.59;;;-142.70;76.22
6224;BME280;3145;42.726;23.342;2023-05-22T03:22:25;72097.59;;;-142.70;76.28
6224;BME280;3145;42.726;23.342;2023-05-22T03:24:52;72093.56;;;-142.70;76.34
6224;BME280;3145;42.726;23.342;2023-05-22T03:27:20;72081.47;;;-142.70;76.27
6224;BME280;3145;42.726;23.342;2023-05-22T03:29:47;72073.41;;;-142.70;76.27
6224;BME280;3145;42.726;23.342;2023-05-22T03:32:13;72071.41;;;-142.70;76.42
6224;BME280;3145;42.726;23.342;2023-05-22T03:34:40;72061.34;;;-142.70;76.42
6224;BME280;3145;42.726;23.342;2023-05-22T03:37:07;72055.28;;;-142.70;76.09
6224;BME280;3145;42.726;23.342;2023-05-22T03:39:34;72057.31;;;-142.70;75.71
6224;BME280;3145;42.726;23.342;2023-05-22T03:42:01;72057.31;;;-142.70;75.69
6224;BME280;3145;42.726;23.342;2023-05-22T03:44:29;72063.34;;;-142.70;76.39
6224;BME280;3145;42.726;23.342;2023-05-22T03:46:55;72065.38;;;-142.70;78.22
6224;BME280;3145;42.726;23.342;2023-05-22T03:49:22;72051.25;;;-142.70;78.92
6224;BME280;3145;42.726;23.342;2023-05-22T03:51:49;72021.06;;;-142.70;77.83
6224;BME280;3145;42.726;23.342;2023-05-22T03:54:15;71980.75;;;-142.70;77.16
6224;BME280;3145;42.726;23.342;2023-05-22T03:56:42;71948.53;;;-142.70;75.74
6224;BME280;3145;42.726;23.342;2023-05-22T03:59:09;71930.41;;;-142.70;74.51
6224;BME280;3145;42.726;23.342;2023-05-22T04:01:37;71900.19;;;-142.70;74.21
6224;BME280;3145;42.726;23.342;2023-05-22T04:04:04;71892.16;;;-142.70;73.16
6224;BME280;3145;42.726;23.342;2023-05-22T04:06:31;71888.13;;;-142.70;72.28
6224;BME280;3145;42.726;23.342;2023-05-22T04:08:59;71894.16;;;-142.70;71.47
6224;BME280;3145;42.726;23.342;2023-05-22T04:11:26;71896.16;;;-142.70;71.38
6224;BME280;3145;42.726;23.342;2023-05-22T04:13:54;71892.16;;;-142.70;71.20
6224;BME280;3145;42.726;23.342;2023-05-22T04:16:21;71890.13;;;-142.70;71.27
6224;BME280;3145;42.726;23.342;2023-05-22T04:18:49;71884.09;;;-142.70;70.96
6224;BME280;3145;42.726;23.342;2023-05-22T04:21:16;71888.13;;;-142.70;70.33
6224;BME280;3145;42.726;23.342;2023-05-22T04:23:43;71890.13;;;-142.70;70.76
6224;BME280;3145;42.726;23.342;2023-05-22T04:26:10;71884.09;;;-142.70;71.00
6224;BME280;3145;42.726;23.342;2023-05-22T04:28:36;71884.09;;;-142.70;70.40
6224;BME280;3145;42.726;23.342;2023-05-22T04:31:03;71884.09;;;-142.70;70.70
6224;BME280;3145;42.726;23.342;2023-05-22T04:33:31;71884.09;;;-142.70;70.45
6224;BME280;3145;42.726;23.342;2023-05-22T04:36:01;71886.09;;;-142.70;70.50
6224;BME280;3145;42.726;23.342;2023-05-22T04:38:27;71888.13;;;-142.70;69.77
6224;BME280;3145;42.726;23.342;2023-05-22T04:40:54;71880.06;;;-142.70;69.14
6224;BME280;3145;42.726;23.342;2023-05-22T04:43:21;71874.00;;;-142.70;69.54
6224;BME280;3145;42.726;23.342;2023-05-22T04:45:50;71839.78;;;-142.70;69.75
6224;BME280;3145;42.726;23.342;2023-05-22T04:48:18;71787.41;;;-142.70;69.64
6224;BME280;3145;42.726;23.342;2023-05-22T04:50:45;71722.97;;;-142.70;68.23
6224;BME280;3145;42.726;23.342;2023-05-22T04:53:14;71654.47;;;-142.70;67.95
6224;BME280;3145;42.726;23.342;2023-05-22T04:55:40;71594.06;;;-142.70;64.69
6224;BME280;3145;42.726;23.342;2023-05-22T04:58:07;71527.59;;;-142.70;62.15
6224;BME280;3145;42.726;23.342;2023-05-22T05:00:34;71465.16;;;-142.70;59.27
6224;BME280;3145;42.726;23.342;2023-05-22T05:03:01;71455.09;;;-142.70;55.94
6224;BME280;3145;42.726;23.342;2023-05-22T05:05:27;71404.75;;;-142.70;55.11
6224;BME280;3145;42.726;23.342;2023-05-22T05:07:54;71344.34;;;-142.70;53.21
6224;BME280;3145;42.726;23.342;2023-05-22T05:10:22;71298.03;;;-142.70;51.63
6224;BME280;3145;42.726;23.342;2023-05-22T05:12:49;71267.81;;;-142.70;49.00
6224;BME280;3145;42.726;23.342;2023-05-22T05:15:16;71229.56;;;-142.70;47.44
6224;BME280;3145;42.726;23.342;2023-05-22T05:17:43;71187.28;;;-142.70;46.88
6224;BME280;3145;42.726;23.342;2023-05-22T05:20:10;71151.03;;;-142.70;45.99
6224;BME280;3145;42.726;23.342;2023-05-22T05:22:38;71142.97;;;-142.70;44.63
6224;BME280;3145;42.726;23.342;2023-05-22T05:25:06;71114.78;;;-142.70;44.52
6224;BME280;3145;42.726;23.342;2023-05-22T05:27:34;71100.69;;;-142.70;44.43
6224;BME280;3145;42.726;23.342;2023-05-22T05:30:01;71062.41;;;-142.70;43.82
6224;BME280;3145;42.726;23.342;2023-05-22T05:32:29;71050.34;;;-142.70;42.48
6224;BME280;3145;42.726;23.342;2023-05-22T05:34:55;71050.34;;;-142.70;41.73
6224;BME280;3145;42.726;23.342;2023-05-22T05:37:22;71024.16;;;-142.70;41.77
6224;BME280;3145;42.726;23.342;2023-05-22T05:39:49;70985.91;;;-142.70;41.24
6224;BME280;3145;42.726;23.342;2023-05-22T05:42:16;70981.88;;;-142.70;40.42
6224;BME280;3145;42.726;23.342;2023-05-22T05:44:44;70939.59;;;-142.70;40.16
6224;BME280;3145;42.726;23.342;2023-05-22T05:47:11;70905.34;;;-142.70;39.84
6224;BME280;3145;42.726;23.342;2023-05-22T05:49:38;70881.19;;;-142.70;39.22
6224;BME280;3145;42.726;23.342;2023-05-22T05:52:05;70889.25;;;-142.70;38.35
6224;BME280;3145;42.726;23.342;2023-05-22T05:54:32;70879.19;;;-142.70;38.53
6224;BME280;3145;42.726;23.342;2023-05-22T05:56:59;70871.13;;;-142.70;38.18
6224;BME280;3145;42.726;23.342;2023-05-22T05:59:25;70830.84;;;-142.70;38.56
6224;BME280;3145;42.726;23.342;2023-05-22T06:01:53;70806.69;;;-142.70;37.62
6224;BME280;3145;42.726;23.342;2023-05-22T06:04:20;70792.59;;;-142.70;36.38
6224;BME280;3145;42.726;23.342;2023-05-22T06:06:47;70780.53;;;-142.70;36.58
6224;BME280;3145;42.726;23.342;2023-05-22T06:09:14;70760.38;;;-142.70;36.27
6224;BME280;3145;42.726;23.342;2023-05-22T06:11:41;70732.19;;;-142.70;36.08
6224;BME280;3145;42.726;23.342;2023-05-22T06:14:07;70726.16;;;-142.70;35.97
6224;BME280;3145;42.726;23.342;2023-05-22T06:16:34;70728.16;;;-142.70;35.93
6224;BME280;3145;42.726;23.342;2023-05-22T06:19:02;70710.06;;;-142.70;35.32
6224;BME280;3145;42.726;23.342;2023-05-22T06:21:29;70679.84;;;-142.70;35.19
6224;BME280;3145;42.726;23.342;2023-05-22T06:23:56;70651.66;;;-142.70;34.24
6224;BME280;3145;42.726;23.342;2023-05-22T06:26:23;70639.59;;;-142.70;34.00
6224;BME280;3145;42.726;23.342;2023-05-22T06:28:50;70635.56;;;-142.70;33.23
6224;BME280;3145;42.726;23.342;2023-05-22T06:31:18;70659.72;;;-142.70;32.46
6224;BME280;3145;42.726;23.342;2023-05-22T06:33:44;70736.22;;;-142.70;32.26
6224;BME280;3145;42.726;23.342;2023-05-22T06:36:13;70875.16;;;-142.70;33.79
6224;BME280;3145;42.726;23.342;2023-05-22T06:38:40;70901.34;;;-142.70;35.58
6224;BME280;3145;42.726;23.342;2023-05-22T06:41:07;70939.59;;;-142.70;34.75
6224;BME280;3145;42.726;23.342;2023-05-22T06:43:34;70963.75;;;-142.70;37.27
6224;BME280;3145;42.726;23.342;2023-05-22T06:46:01;70973.81;;;-142.70;37.57
6224;BME280;3145;42.726;23.342;2023-05-22T06:48:27;70985.91;;;-142.70;36.96
6224;BME280;3145;42.726;23.342;2023-05-22T06:50:58;71010.06;;;-142.70;36.99
6224;BME280;3145;42.726;23.342;2023-05-22T06:53:29;71014.09;;;-142.70;36.27
6224;BME280;3145;42.726;23.342;2023-05-22T06:55:56;71026.19;;;-142.70;38.15
6224;BME280;3145;42.726;23.342;2023-05-22T06:58:22;71022.16;;;-142.70;38.03
6224;BME280;3145;42.726;23.342;2023-05-22T07:00:49;71004.03;;;-142.70;38.50
6224;BME280;3145;42.726;23.342;2023-05-22T07:03:16;70997.97;;;-142.70;38.66
6224;BME280;3145;42.726;23.342;2023-05-22T07:05:43;70993.97;;;-142.70;37.58
6224;BME280;3145;42.726;23.342;2023-05-22T07:08:09;70983.88;;;-142.70;38.17
6224;BME280;3145;42.726;23.342;2023-05-22T07:10:38;71028.19;;;-142.70;36.46
6224;BME280;3145;42.726;23.342;2023-05-22T07:13:04;71020.13;;;-142.70;36.52
6224;BME280;3145;42.726;23.342;2023-05-22T07:15:31;70977.84;;;-142.70;36.82
6224;BME280;3145;42.726;23.342;2023-05-22T07:17:58;70921.47;;;-142.70;37.14
6224;BME280;3145;42.726;23.342;2023-05-22T07:20:24;70891.25;;;-142.70;36.95
6224;BME280;3145;42.726;23.342;2023-05-22T07:22:51;71004.03;;;-142.70;35.01
6224;BME280;3145;42.726;23.342;2023-05-22T07:25:18;70985.91;;;-142.70;36.34
6224;BME280;3145;42.726;23.342;2023-05-22T07:27:46;70989.94;;;-142.70;36.31
6224;BME280;3145;42.726;23.342;2023-05-22T07:30:13;70969.78;;;-142.70;36.65
6224;BME280;3145;42.726;23.342;2023-05-22T07:32:40;70953.69;;;-142.70;35.88
6224;BME280;3145;42.726;23.342;2023-05-22T07:35:07;70981.88;;;-142.70;35.16
6224;BME280;3145;42.726;23.342;2023-05-22T07:37:35;70937.56;;;-142.70;35.44
6224;BME280;3145;42.726;23.342;2023-05-22T07:40:02;70905.34;;;-142.70;35.25
6224;BME280;3145;42.726;23.342;2023-05-22T07:42:31;70933.56;;;-142.70;35.56
6224;BME280;3145;42.726;23.342;2023-05-22T07:45:00;70909.38;;;-142.70;35.17
6224;BME280;3145;42.726;23.342;2023-05-22T07:47:26;70961.75;;;-142.70;35.50
6224;BME280;3145;42.726;23.342;2023-05-22T07:49:53;70915.44;;;-142.70;36.25
6224;BME280;3145;42.726;23.342;2023-05-22T07:52:20;70885.22;;;-142.70;35.99
6224;BME280;3145;42.726;23.342;2023-05-22T07:54:48;70965.75;;;-142.70;36.05
6224;BME280;3145;42.726;23.342;2023-05-22T07:57:15;71080.53;;;-142.70;36.05
6224;BME280;3145;42.726;23.342;2023-05-22T07:59:42;71122.84;;;-142.70;37.01
6224;BME280;3145;42.726;23.342;2023-05-22T08:02:11;71118.81;;;-142.70;37.04
6224;BME280;3145;42.726;23.342;2023-05-22T08:04:38;71098.66;;;-142.70;37.70
6224;BME280;3145;42.726;23.342;2023-05-22T08:07:05;71052.34;;;-142.70;37.86
6224;BME280;3145;42.726;23.342;2023-05-22T08:09:33;71102.69;;;-142.70;38.08
6224;BME280;3145;42.726;23.342;2023-05-22T08:12:00;71078.53;;;-142.70;38.37
6224;BME280;3145;42.726;23.342;2023-05-22T08:14:26;71096.66;;;-142.70;37.12
6224;BME280;3145;42.726;23.342;2023-05-22T08:16:53;71118.81;;;-142.70;37.91
6224;BME280;3145;42.726;23.342;2023-05-22T08:19:22;71167.13;;;-142.70;38.15
6224;BME280;3145;42.726;23.342;2023-05-22T08:21:49;71171.16;;;-142.70;38.69
6224;BME280;3145;42.726;23.342;2023-05-22T08:24:17;71155.06;;;-142.70;38.12
6224;BME280;3145;42.726;23.342;2023-05-22T08:26:44;71165.13;;;-142.70;38.48
6224;BME280;3145;42.726;23.342;2023-05-22T08:29:10;71151.03;;;-142.70;38.50
6224;BME280;3145;42.726;23.342;2023-05-22T08:31:37;71147.00;;;-142.70;37.65
6224;BME280;3145;42.726;23.342;2023-05-22T08:34:04;71112.75;;;-142.70;37.86
6224;BME280;3145;42.726;23.342;2023-05-22T08:36:32;71094.63;;;-142.70;38.86
6224;BME280;3145;42.726;23.342;2023-05-22T08:38:59;71106.72;;;-142.70;38.18
6224;BME280;3145;42.726;23.342;2023-05-22T08:41:27;71064.44;;;-142.70;37.94
6224;BME280;3145;42.726;23.342;2023-05-22T08:43:53;71070.47;;;-142.70;35.56
6224;BME280;3145;42.726;23.342;2023-05-22T08:46:22;71026.19;;;-142.70;34.89
6224;BME280;3145;42.726;23.342;2023-05-22T08:48:50;71040.28;;;-142.70;35.40
6224;BME280;3145;42.726;23.342;2023-05-22T08:51:18;71032.22;;;-142.70;35.62
6224;BME280;3145;42.726;23.342;2023-05-22T08:53:50;71046.31;;;-142.70;36.10
6224;BME280;3145;42.726;23.342;2023-05-22T08:56:17;71060.41;;;-142.70;36.79
6224;BME280;3145;42.726;23.342;2023-05-22T08:58:44;71072.50;;;-142.70;35.78
6224;BME280;3145;42.726;23.342;2023-05-22T09:01:12;71056.38;;;-142.70;35.74
6224;BME280;3145;42.726;23.342;2023-05-22T09:03:40;71088.59;;;-142.70;36.10
6224;BME280;3145;42.726;23.342;2023-05-22T09:06:07;71074.50;;;-142.70;36.25
6224;BME280;3145;42.726;23.342;2023-05-22T09:08:36;71098.66;;;-142.70;36.16
6224;BME280;3145;42.726;23.342;2023-05-22T09:11:04;71104.72;;;-142.70;37.23
6224;BME280;3145;42.726;23.342;2023-05-22T09:13:31;71090.63;;;-142.70;37.33
6224;BME280;3145;42.726;23.342;2023-05-22T09:15:58;71106.72;;;-142.70;36.99
6224;BME280;3145;42.726;23.342;2023-05-22T09:18:26;71102.69;;;-142.70;36.82
6224;BME280;3145;42.726;23.342;2023-05-22T09:20:56;71102.69;;;-142.70;36.91
6224;BME280;3145;42.726;23.342;2023-05-22T09:23:26;71098.66;;;-142.70;36.84
6224;BME280;3145;42.726;23.342;2023-05-22T09:25:54;71122.84;;;-142.70;37.81
6224;BME280;3145;42.726;23.342;2023-05-22T09:28:22;71118.81;;;-142.70;37.42
6224;BME280;3145;42.726;23.342;2023-05-22T09:30:50;71114.78;;;-142.70;36.99
6224;BME280;3145;42.726;23.342;2023-05-22T09:33:17;71112.75;;;-142.70;35.91
6224;BME280;3145;42.726;23.342;2023-05-22T09:35:45;71082.56;;;-142.70;36.66
6224;BME280;3145;42.726;23.342;2023-05-22T09:38:12;71090.63;;;-142.70;36.84
6224;BME280;3145;42.726;23.342;2023-05-22T09:40:40;71086.59;;;-142.70;37.49
6224;BME280;3145;42.726;23.342;2023-05-22T09:43:07;71084.56;;;-142.70;37.47
6224;BME280;3145;42.726;23.342;2023-05-22T09:45:36;71106.72;;;-142.70;37.33
6224;BME280;3145;42.726;23.342;2023-05-22T09:48:04;71130.88;;;-142.70;37.53
6224;BME280;3145;42.726;23.342;2023-05-22T09:50:31;71193.31;;;-142.70;37.90
6224;BME280;3145;42.726;23.342;2023-05-22T09:53:00;71203.38;;;-142.70;38.88
6224;BME280;3145;42.726;23.342;2023-05-22T09:55:27;71211.44;;;-142.70;38.77
6224;BME280;3145;42.726;23.342;2023-05-22T09:57:55;71215.47;;;-142.70;38.96
6224;BME280;3145;42.726;23.342;2023-05-22T10:00:23;71227.53;;;-142.70;40.06
6224;BME280;3145;42.726;23.342;2023-05-22T10:02:57;71209.41;;;-142.70;39.90
6224;BME280;3145;42.726;23.342;2023-05-22T10:05:29;71231.56;;;-142.70;40.57
6224;BME280;3145;42.726;23.342;2023-05-22T10:08:01;71257.75;;;-142.70;40.73
6224;BME280;3145;42.726;23.342;2023-05-22T10:10:31;71235.59;;;-142.70;40.47
6224;BME280;3145;42.726;23.342;2023-05-22T10:13:00;71243.66;;;-142.70;40.25
6224;BME280;3145;42.726;23.342;2023-05-22T10:15:27;71247.69;;;-142.70;40.71
6224;BME280;3145;42.726;23.342;2023-05-22T10:17:56;71267.81;;;-142.70;41.22
6224;BME280;3145;42.726;23.342;2023-05-22T10:20:24;71271.84;;;-142.70;41.61
6224;BME280;3145;42.726;23.342;2023-05-22T10:22:52;71304.06;;;-142.70;41.42
6224;BME280;3145;42.726;23.342;2023-05-22T10:25:20;71324.19;;;-142.70;41.33
6224;BME280;3145;42.726;23.342;2023-05-22T10:27:47;71320.19;;;-142.70;41.22
6224;BME280;3145;42.726;23.342;2023-05-22T10:30:22;71342.31;;;-142.70;41.50
6224;BME280;3145;42.726;23.342;2023-05-22T10:32:53;71338.31;;;-142.70;41.73
6224;BME280;3145;42.726;23.342;2023-05-22T10:35:28;71348.38;;;-142.70;41.60
6224;BME280;3145;42.726;23.342;2023-05-22T10:38:06;71336.28;;;-142.70;42.32
6224;BME280;3145;42.726;23.342;2023-05-22T10:40:40;71328.22;;;-142.70;42.52
6224;BME280;3145;42.726;23.342;2023-05-22T10:43:10;71324.19;;;-142.70;42.82
6224;BME280;3145;42.726;23.342;2023-05-22T10:45:36;71322.19;;;-142.70;42.11
6224;BME280;3145;42.726;23.342;2023-05-22T10:48:04;71289.97;;;-142.70;42.91
6224;BME280;3145;42.726;23.342;2023-05-22T10:50:33;71283.94;;;-142.70;40.75
6224;BME280;3145;42.726;23.342;2023-05-22T10:53:21;71269.84;;;-142.70;40.77
6224;BME280;3145;42.726;23.342;2023-05-22T10:55:49;71245.66;;;-142.70;40.87
6224;BME280;3145;42.726;23.342;2023-05-22T10:58:17;71187.28;;;-142.70;39.92
6224;BME280;3145;42.726;23.342;2023-05-22T11:00:44;71147.00;;;-142.70;39.14
6224;BME280;3145;42.726;23.342;2023-05-22T11:03:11;71106.72;;;-142.70;39.80
6224;BME280;3145;42.726;23.342;2023-05-22T11:05:39;71118.81;;;-142.70;38.25
6224;BME280;3145;42.726;23.342;2023-05-22T11:11:12;71134.91;;;-142.70;38.84
6224;BME280;3145;42.726;23.342;2023-05-22T11:13:39;71151.03;;;-142.70;39.23
6224;BME280;3145;42.726;23.342;2023-05-22T11:16:08;71181.22;;;-142.70;38.45
6224;BME280;3145;42.726;23.342;2023-05-22T11:18:35;71225.53;;;-142.70;39.36
6224;BME280;3145;42.726;23.342;2023-05-22T11:21:04;71245.66;;;-142.70;39.44
6224;BME280;3145;42.726;23.342;2023-05-22T11:23:35;71279.91;;;-142.70;40.18
6224;BME280;3145;42.726;23.342;2023-05-22T11:26:19;71306.09;;;-142.70;41.31
6224;BME280;3145;42.726;23.342;2023-05-22T11:28:49;71342.31;;;-142.70;44.78
6224;BME280;3145;42.726;23.342;2023-05-22T11:31:18;71408.78;;;-142.70;48.11
6224;BME280;3145;42.726;23.342;2023-05-22T11:33:45;71505.44;;;-142.70;49.68
6224;BME280;3145;42.726;23.342;2023-05-22T11:36:14;71567.88;;;-142.70;52.81
6224;BME280;3145;42.726;23.342;2023-05-22T11:38:41;71618.22;;;-142.70;53.40
6224;BME280;3145;42.726;23.342;2023-05-22T11:41:09;71678.66;;;-142.70;57.27
6224;BME280;3145;42.726;23.342;2023-05-22T11:43:37;71722.97;;;-142.70;60.25
6224;BME280;3145;42.726;23.342;2023-05-22T11:46:08;71727.00;;;-142.70;57.61
6224;BME280;3145;42.726;23.342;2023-05-22T11:48:38;71745.13;;;-142.70;62.22
6224;BME280;3145;42.726;23.342;2023-05-22T11:51:05;71751.16;;;-142.70;59.33
6224;BME280;3145;42.726;23.342;2023-05-22T11:53:34;71757.19;;;-142.70;57.90
6224;BME280;3145;42.726;23.342;2023-05-22T11:56:02;71749.13;;;-142.70;58.92
6224;BME280;3145;42.726;23.342;2023-05-22T11:58:29;71735.03;;;-142.70;55.47
6224;BME280;3145;42.726;23.342;2023-05-22T12:00:57;71727.00;;;-142.70;56.23
6224;BME280;3145;42.726;23.342;2023-05-22T12:03:24;71710.88;;;-142.70;55.35
6224;BME280;3145;42.726;23.342;2023-05-22T12:05:51;71694.75;;;-142.70;59.08
6224;BME280;3145;42.726;23.342;2023-05-22T12:08:19;71684.69;;;-142.70;56.02
6224;BME280;3145;42.726;23.342;2023-05-22T12:10:48;71662.53;;;-142.70;53.95
6224;BME280;3145;42.726;23.342;2023-05-22T12:13:21;71650.44;;;-142.70;55.28
6224;BME280;3145;42.726;23.342;2023-05-22T12:15:48;71638.38;;;-142.70;52.79
6224;BME280;3145;42.726;23.342;2023-05-22T12:18:17;71622.25;;;-142.70;50.87
6224;BME280;3145;42.726;23.342;2023-05-22T12:20:44;71614.19;;;-142.70;51.85
6224;BME280;3145;42.726;23.342;2023-05-22T12:23:11;71602.13;;;-142.70;51.42
6224;BME280;3145;42.726;23.342;2023-05-22T12:25:37;71594.06;;;-142.70;51.37
6224;BME280;3145;42.726;23.342;2023-05-22T12:28:06;71586.00;;;-142.70;51.97
6224;BME280;3145;42.726;23.342;2023-05-22T12:30:39;71594.06;;;-142.70;55.10
6224;BME280;3145;42.726;23.342;2023-05-22T12:33:11;71586.00;;;-142.70;52.18
6224;BME280;3145;42.726;23.342;2023-05-22T12:35:39;71586.00;;;-142.70;54.00
6224;BME280;3145;42.726;23.342;2023-05-22T12:38:06;71586.00;;;-142.70;56.84
6224;BME280;3145;42.726;23.342;2023-05-22T12:40:34;71602.13;;;-142.70;53.96
6224;BME280;3145;42.726;23.342;2023-05-22T12:43:01;71588.03;;;-142.70;55.45
6224;BME280;3145;42.726;23.342;2023-05-22T12:45:29;71569.91;;;-142.70;56.81
6224;BME280;3145;42.726;23.342;2023-05-22T12:47:55;71565.88;;;-142.70;58.20
6224;BME280;3145;42.726;23.342;2023-05-22T12:50:22;71569.91;;;-142.70;57.04
6224;BME280;3145;42.726;23.342;2023-05-22T12:52:49;71586.00;;;-142.70;56.90
6224;BME280;3145;42.726;23.342;2023-05-22T12:55:16;71600.09;;;-142.70;57.04
6224;BME280;3145;42.726;23.342;2023-05-22T12:57:43;71594.06;;;-142.70;56.28
6224;BME280;3145;42.726;23.342;2023-05-22T13:00:10;71602.13;;;-142.70;60.33